ETHN

Niederstetten Airport

Niederstetten, Germany
TAF ETHN 181000Z 1811/1820 27007KT 9999 NSW SCT040
Issued Valid From Valid To
Jun-18 @ 10:00 UTC
(3 hours ago)
Jun-18 @ 11:00 UTC
(2 hours ago)
Jun-18 @ 20:00 UTC
(in 7 hours)
Jun-18 @ 11:00 to Jun-18 @ 20:00
TAF ETHN 181000Z 1811/1820 27007KT 9999 NSW SCT040
Wind Visibility Clouds Conditions
270° at 7 knots 10,000+ meters
  • Scattered at 4,000' AGL
TAF ETHN 181000Z 1811/1820 27007KT 9999 NSW SCT040
Issued Jun-18 @ 10:00 UTC
(3 hours ago)
Valid From Jun-18 @ 11:00 UTC
(2 hours ago)
Valid To Jun-18 @ 20:00 UTC
(in 7 hours)
Jun-18 @ 11:00 - Jun-18 @ 20:00
Wind Visibility
270° at 7 knots 10,000+ meters
Clouds
  • Scattered at 4,000' AGL
Conditions